Weather at St. André-Avellin Aerodrome

Public forecast

Using degrees Celsius for public forecast. Weather courtesy of forecast.io.

Closest aviation weather report (METAR) to St. André-Avellin Aerodrome

Closest report is Ottawa / Gatineau Airport, 24.7 nm (45.7 km) WSW.

2024/05/22 19:00 (retrieved 55 minutes ago)

CYND 221900Z 17007KT 140V240 12SM SCT050TCU BKN220 30/20 A2971 RMK TCU3CI2 TCU W SLP062 DENSITY ALT 2300FT

Closest aviation forecast (TAF) to St. André-Avellin Aerodrome

Closest forecast is Ottawa / Gatineau Airport, 24.7 nm (45.7 km) WSW.

2024/05/22 18:00 (retrieved 2 hours ago)

TAF CYND 221740Z 2218/2301 10007KT P6SM SCT240 FM222000 23008KT P6SM SCT060 FM222200 23008KT P6SM BKN060 TEMPO 2222/2301 P6SM -SHRA PROB30 2223/2301 VRB20G35KT 3SM TSRA BR BKN020 OVC060CB RMK NXT FCST BY 231300Z